Time;durP1;ratioP1;P1;durP2;ratioP2;P2;SDS_P1;SDS_P2;PMS_P1;PMS_P2;Temp;Humidity;BMP_temperature;BMP_pressure;BME280_temperature;BME280_humidity;BME280_pressure;Samples;Min_cycle;Max_cycle;Signal;HPM_P1;HPM_P2
2024/04/25 00:01:51;;;;;;;6.47;2.20;;;6.80;99.90;;;;;;5277636;26;20231;-70
2024/04/25 00:04:17;;;;;;;4.10;2.15;;;6.80;99.90;;;;;;5309726;26;20235;-69
2024/04/25 00:06:43;;;;;;;12.18;2.97;;;6.80;99.90;;;;;;5276767;26;20344;-70
2024/04/25 00:09:09;;;;;;;3.10;2.20;;;6.90;99.90;;;;;;5293265;26;20235;-70
2024/04/25 00:11:34;;;;;;;4.13;2.63;;;6.90;99.90;;;;;;5305859;26;20571;-70
2024/04/25 00:14:01;;;;;;;6.00;2.55;;;6.90;99.90;;;;;;5305801;26;20231;-70
2024/04/25 00:16:27;;;;;;;5.95;2.90;;;7.00;99.90;;;;;;5307123;26;20239;-69
2024/04/25 00:18:53;;;;;;;4.72;2.78;;;7.00;99.90;;;;;;5308316;26;20419;-69
2024/04/25 00:21:18;;;;;;;4.47;2.63;;;7.00;99.90;;;;;;5309370;26;20275;-69
2024/04/25 00:23:44;;;;;;;3.80;2.80;;;7.00;99.90;;;;;;5274184;26;20282;-70
2024/04/25 00:26:10;;;;;;;8.43;3.33;;;7.00;99.90;;;;;;5312365;26;20276;-70
2024/04/25 00:28:35;;;;;;;8.88;3.38;;;6.90;99.90;;;;;;5308591;26;20232;-70
2024/04/25 00:31:01;;;;;;;5.00;3.40;;;6.90;99.90;;;;;;5311047;26;20829;-70
2024/04/25 00:33:27;;;;;;;4.97;4.07;;;6.80;99.90;;;;;;5278153;26;21938;-70
2024/04/25 00:35:52;;;;;;;8.20;4.05;;;6.70;99.90;;;;;;5310575;26;20349;-70
2024/04/25 00:38:18;;;;;;;8.20;3.67;;;6.60;99.90;;;;;;5313584;26;20238;-69
2024/04/25 00:40:46;;;;;;;7.45;3.85;;;6.50;99.90;;;;;;5308964;26;20283;-69
2024/04/25 00:43:13;;;;;;;8.98;3.97;;;6.40;99.90;;;;;;5311287;26;20668;-68
2024/04/25 00:45:39;;;;;;;7.18;3.20;;;6.20;99.90;;;;;;5307119;26;20232;-69
2024/04/25 00:48:05;;;;;;;6.07;3.03;;;6.20;99.90;;;;;;5310108;26;20337;-69
2024/04/25 00:50:32;;;;;;;7.20;3.50;;;6.00;99.90;;;;;;5278711;26;20240;-69
2024/04/25 00:53:01;;;;;;;11.07;4.10;;;6.00;99.90;;;;;;5310456;26;20357;-68
2024/04/25 00:55:27;;;;;;;8.68;3.80;;;5.90;99.90;;;;;;5308193;26;20232;-68
2024/04/25 00:57:55;;;;;;;7.70;4.40;;;5.90;99.90;;;;;;5307875;26;20299;-71
2024/04/25 01:00:23;;;;;;;6.88;3.90;;;5.90;99.90;;;;;;5275780;26;20578;-70
2024/04/25 01:02:52;;;;;;;9.07;4.35;;;5.90;99.90;;;;;;5310581;26;20264;-70
2024/04/25 01:05:22;;;;;;;7.03;4.38;;;5.80;99.90;;;;;;5308968;26;20333;-68
2024/04/25 01:07:48;;;;;;;6.30;3.85;;;5.90;99.90;;;;;;5305057;26;20266;-69
2024/04/25 01:10:14;;;;;;;8.32;3.60;;;5.90;99.90;;;;;;5308877;26;20619;-69
2024/04/25 01:12:40;;;;;;;5.57;3.55;;;5.90;99.90;;;;;;5278624;26;20230;-69
2024/04/25 01:15:05;;;;;;;4.80;3.67;;;5.90;99.90;;;;;;5308741;26;20730;-68
2024/04/25 01:17:32;;;;;;;9.52;3.60;;;5.90;99.90;;;;;;5304655;26;20261;-68
2024/04/25 01:19:57;;;;;;;4.65;3.10;;;5.90;99.90;;;;;;5309706;26;20264;-68
2024/04/25 01:22:28;;;;;;;6.07;2.65;;;5.90;99.90;;;;;;5334011;26;20633;-70
2024/04/25 01:24:54;;;;;;;5.50;2.38;;;5.90;99.90;;;;;;5303610;26;20269;-69
2024/04/25 01:27:21;;;;;;;5.03;2.40;;;5.90;99.90;;;;;;5307171;26;20553;-70
2024/04/25 01:29:47;;;;;;;5.07;2.05;;;5.90;99.90;;;;;;5309247;26;20814;-69
2024/04/25 01:32:14;;;;;;;5.60;2.10;;;5.90;99.90;;;;;;5307023;26;20235;-69
2024/04/25 01:34:40;;;;;;;5.75;2.08;;;5.80;99.90;;;;;;5303424;26;20351;-68
2024/04/25 01:37:06;;;;;;;3.80;2.00;;;5.80;99.90;;;;;;5297054;26;20578;-68
2024/04/25 01:39:31;;;;;;;3.45;1.80;;;5.80;99.90;;;;;;5304745;26;20303;-68
2024/04/25 01:41:57;;;;;;;2.90;1.83;;;5.80;99.90;;;;;;5307254;26;20334;-69
2024/04/25 01:44:23;;;;;;;5.03;2.10;;;5.80;99.90;;;;;;5275282;26;20235;-69
2024/04/25 01:46:53;;;;;;;9.30;2.30;;;5.80;99.90;;;;;;5306956;26;20298;-67
2024/04/25 01:49:19;;;;;;;4.00;2.00;;;5.90;99.90;;;;;;5306557;26;20248;-69
2024/04/25 01:51:44;;;;;;;4.93;2.25;;;5.90;99.90;;;;;;5306842;26;20231;-69
2024/04/25 01:54:10;;;;;;;6.03;2.03;;;5.90;99.90;;;;;;5269286;26;20705;-69
2024/04/25 01:56:35;;;;;;;8.18;2.60;;;5.90;99.90;;;;;;5306751;26;20802;-68
2024/04/25 01:59:01;;;;;;;4.50;2.17;;;5.90;99.90;;;;;;5306606;26;20314;-68
2024/04/25 02:01:27;;;;;;;6.20;2.50;;;5.90;99.90;;;;;;5308518;26;20232;-67
2024/04/25 02:03:52;;;;;;;9.75;2.60;;;5.90;99.90;;;;;;5306941;26;20239;-69
2024/04/25 02:06:18;;;;;;;12.98;2.40;;;6.00;99.90;;;;;;5305200;26;20251;-69
2024/04/25 02:08:44;;;;;;;9.10;2.38;;;6.00;99.90;;;;;;5275319;26;20277;-68
2024/04/25 02:11:10;;;;;;;13.90;2.88;;;6.10;99.90;;;;;;5304356;26;20231;-69
2024/04/25 02:13:36;;;;;;;7.43;1.83;;;6.10;99.90;;;;;;5307975;26;20238;-68
2024/04/25 02:16:02;;;;;;;7.00;1.60;;;6.10;99.90;;;;;;5304996;26;20379;-69
2024/04/25 02:18:27;;;;;;;11.48;1.88;;;6.10;99.90;;;;;;5304463;26;20231;-68
2024/04/25 02:26:22;;;;;;;9.07;1.42;;;6.10;99.90;;;;;;5310906;26;20239;-69
2024/04/25 02:28:48;;;;;;;15.98;1.88;;;6.10;99.90;;;;;;5310026;26;21106;-68
2024/04/25 02:31:19;;;;;;;10.77;1.88;;;6.10;99.90;;;;;;5311303;26;20266;-68
2024/04/25 02:33:48;;;;;;;7.38;1.80;;;6.10;99.90;;;;;;5334085;26;20677;-69
2024/04/25 02:36:14;;;;;;;13.82;1.80;;;6.10;99.90;;;;;;5304063;26;20259;-69
2024/04/25 02:38:40;;;;;;;13.70;2.10;;;6.20;99.90;;;;;;5274698;26;20280;-69
2024/04/25 02:41:05;;;;;;;12.82;2.10;;;6.20;99.90;;;;;;5306625;26;20243;-69
2024/04/25 02:43:31;;;;;;;13.15;2.10;;;6.20;99.90;;;;;;5308207;26;20304;-68
2024/04/25 02:45:57;;;;;;;9.60;2.10;;;6.30;99.90;;;;;;5302044;26;20341;-69
2024/04/25 02:48:22;;;;;;;10.43;1.90;;;6.30;99.90;;;;;;5306423;26;20231;-69
2024/04/25 02:50:48;;;;;;;11.45;2.00;;;6.40;99.90;;;;;;5303213;26;20351;-69
2024/04/25 02:53:14;;;;;;;10.30;1.98;;;6.40;99.90;;;;;;5308710;26;20231;-69
2024/04/25 02:55:40;;;;;;;13.90;2.00;;;6.40;99.90;;;;;;5305550;26;20313;-69
2024/04/25 02:58:06;;;;;;;9.73;2.15;;;6.40;99.90;;;;;;5305798;26;20286;-69
2024/04/25 03:00:32;;;;;;;10.65;2.15;;;6.40;99.90;;;;;;5304074;26;20244;-69
2024/04/25 03:02:57;;;;;;;11.23;2.33;;;6.40;99.90;;;;;;5272625;26;20298;-68
2024/04/25 03:05:23;;;;;;;11.35;2.00;;;6.30;99.90;;;;;;5307241;26;20243;-69
2024/04/25 03:07:49;;;;;;;9.45;1.90;;;6.30;99.90;;;;;;5307139;26;20310;-68
2024/04/25 03:10:14;;;;;;;11.32;2.20;;;6.30;99.90;;;;;;5306441;26;20302;-68
2024/04/25 03:12:40;;;;;;;8.88;2.28;;;6.30;99.90;;;;;;5272668;26;20247;-69
2024/04/25 03:15:06;;;;;;;11.80;1.92;;;6.30;99.90;;;;;;5309122;26;20231;-69
2024/04/25 03:17:32;;;;;;;9.73;1.83;;;6.30;99.90;;;;;;5307116;26;20232;-69
2024/04/25 03:19:58;;;;;;;8.55;2.25;;;6.20;99.90;;;;;;5303454;26;20242;-69
2024/04/25 03:22:23;;;;;;;11.93;2.25;;;6.20;99.90;;;;;;5304874;26;20227;-69
2024/04/25 03:24:49;;;;;;;10.50;2.40;;;6.20;99.90;;;;;;5309458;26;20230;-69
2024/04/25 03:27:15;;;;;;;9.77;2.45;;;6.20;99.90;;;;;;5304812;26;20234;-68
2024/04/25 03:29:40;;;;;;;9.85;2.22;;;6.10;99.90;;;;;;5305962;26;20349;-69
2024/04/25 03:32:06;;;;;;;8.98;2.17;;;6.00;99.90;;;;;;5276681;26;20714;-69
2024/04/25 03:34:34;;;;;;;7.60;1.95;;;6.00;99.90;;;;;;5308570;26;21449;-69
2024/04/25 03:37:00;;;;;;;10.65;2.13;;;6.00;99.90;;;;;;5305406;26;20298;-69
2024/04/25 03:39:26;;;;;;;7.78;2.00;;;6.00;99.90;;;;;;5302374;26;20382;-68
2024/04/25 03:41:52;;;;;;;12.52;2.25;;;6.00;99.90;;;;;;5310446;26;20234;-70
2024/04/25 03:44:17;;;;;;;9.23;2.28;;;5.90;99.90;;;;;;5274466;26;20235;-69
2024/04/25 03:46:47;;;;;;;12.60;2.45;;;5.90;99.90;;;;;;5302954;26;20231;-68
2024/04/25 03:49:13;;;;;;;16.92;2.67;;;5.90;99.90;;;;;;5304097;26;20726;-68
2024/04/25 03:51:38;;;;;;;14.25;2.90;;;5.90;99.90;;;;;;5303694;26;20322;-69
2024/04/25 03:54:04;;;;;;;6.07;2.05;;;5.80;99.90;;;;;;5305228;26;20349;-70
2024/04/25 03:56:30;;;;;;;6.38;1.80;;;5.80;99.90;;;;;;5300611;26;20710;-69
2024/04/25 03:58:56;;;;;;;7.60;1.63;;;5.80;99.90;;;;;;5309114;26;20234;-69
2024/04/25 04:01:21;;;;;;;8.95;1.70;;;5.90;99.90;;;;;;5302018;26;20641;-69
2024/04/25 04:03:47;;;;;;;8.40;1.95;;;5.80;99.90;;;;;;5305592;26;20721;-69
2024/04/25 04:06:16;;;;;;;6.25;1.88;;;5.90;99.90;;;;;;5304452;26;20262;-69
2024/04/25 04:08:42;;;;;;;8.85;1.60;;;5.90;99.90;;;;;;5304943;26;20231;-69
2024/04/25 04:11:08;;;;;;;8.90;2.10;;;5.90;99.90;;;;;;5304544;26;20274;-69
2024/04/25 04:13:35;;;;;;;10.20;1.90;;;5.90;99.90;;;;;;5279000;26;20810;-69
2024/04/25 04:16:02;;;;;;;13.80;2.45;;;5.90;99.90;;;;;;5274638;26;21214;-69
2024/04/25 04:18:28;;;;;;;9.63;2.25;;;5.90;99.90;;;;;;5308968;26;20246;-69
2024/04/25 04:20:54;;;;;;;8.15;1.80;;;5.90;99.90;;;;;;5280912;26;21280;-69
2024/04/25 04:23:19;;;;;;;11.43;2.10;;;5.90;99.90;;;;;;5274734;26;20333;-69
2024/04/25 04:25:45;;;;;;;12.65;2.03;;;5.90;99.90;;;;;;5305163;26;20239;-69
2024/04/25 04:28:11;;;;;;;11.05;1.98;;;5.90;99.90;;;;;;5309274;26;20740;-70
2024/04/25 04:30:36;;;;;;;3.83;1.67;;;6.00;99.90;;;;;;5311116;26;20247;-68
2024/04/25 04:33:02;;;;;;;11.77;2.10;;;6.00;99.90;;;;;;5304100;26;20349;-68
2024/04/25 04:35:28;;;;;;;9.18;2.10;;;6.00;99.90;;;;;;5310674;26;20307;-68
2024/04/25 04:37:54;;;;;;;9.20;1.95;;;6.00;99.90;;;;;;5304967;26;20698;-69
2024/04/25 04:40:19;;;;;;;9.48;1.90;;;6.00;99.90;;;;;;5310624;26;20278;-69
2024/04/25 04:42:45;;;;;;;10.15;2.50;;;6.00;99.90;;;;;;5274838;26;20284;-68
2024/04/25 04:45:11;;;;;;;11.15;2.70;;;6.00;99.90;;;;;;5312584;26;20222;-68
2024/04/25 04:47:36;;;;;;;9.90;2.40;;;6.00;99.90;;;;;;5305566;26;20263;-68
2024/04/25 04:50:02;;;;;;;8.93;2.47;;;6.00;99.90;;;;;;5305748;26;20231;-68
2024/04/25 04:52:31;;;;;;;13.35;2.70;;;6.00;99.90;;;;;;5283478;26;20239;-68
2024/04/25 04:54:57;;;;;;;9.93;2.78;;;6.00;99.90;;;;;;5308398;26;20385;-68
2024/04/25 04:57:23;;;;;;;12.05;2.53;;;6.00;99.90;;;;;;5278914;26;20243;-70
2024/04/25 04:59:49;;;;;;;10.80;2.65;;;6.00;99.90;;;;;;5312939;26;20608;-69
2024/04/25 05:02:14;;;;;;;11.60;2.60;;;5.90;99.90;;;;;;5310226;26;20345;-69
2024/04/25 05:04:40;;;;;;;10.23;2.30;;;6.00;99.90;;;;;;5311219;26;20230;-69
2024/04/25 05:07:06;;;;;;;8.50;2.33;;;5.90;99.90;;;;;;5309067;26;20231;-69
2024/04/25 05:09:33;;;;;;;12.40;2.20;;;6.00;99.90;;;;;;5310364;26;20228;-68
2024/04/25 05:11:59;;;;;;;12.68;2.50;;;6.00;99.90;;;;;;5314889;26;20284;-67
2024/04/25 05:14:25;;;;;;;12.52;2.20;;;6.00;99.90;;;;;;5313458;26;20248;-68
2024/04/25 05:16:51;;;;;;;12.23;2.83;;;6.00;99.90;;;;;;5317464;26;20349;-69
2024/04/25 05:19:17;;;;;;;8.07;2.15;;;6.00;99.90;;;;;;5285005;26;20347;-67
2024/04/25 05:21:43;;;;;;;12.90;2.47;;;6.00;99.90;;;;;;5313346;26;20299;-68
2024/04/25 05:24:09;;;;;;;11.70;2.22;;;6.10;99.90;;;;;;5322108;26;20282;-68
2024/04/25 05:26:35;;;;;;;6.97;2.45;;;6.10;99.90;;;;;;5284153;26;20235;-69
2024/04/25 05:29:02;;;;;;;8.98;2.22;;;6.10;99.90;;;;;;5311826;26;20243;-68
2024/04/25 05:31:28;;;;;;;10.80;2.92;;;6.20;99.90;;;;;;5311569;26;20224;-68
2024/04/25 05:33:54;;;;;;;11.13;2.67;;;6.20;99.90;;;;;;5309875;26;20353;-68
2024/04/25 05:36:20;;;;;;;9.00;2.53;;;6.30;99.90;;;;;;5313845;26;20235;-67
2024/04/25 05:38:46;;;;;;;13.77;2.83;;;6.30;99.90;;;;;;5313331;26;20331;-70
2024/04/25 05:41:11;;;;;;;13.52;2.45;;;6.30;99.90;;;;;;5312397;26;20248;-68
2024/04/25 05:43:37;;;;;;;10.43;2.50;;;6.40;99.90;;;;;;5315096;26;20286;-68
2024/04/25 05:46:04;;;;;;;8.95;2.40;;;6.40;99.90;;;;;;5289821;26;20239;-68
2024/04/25 05:48:32;;;;;;;11.18;2.20;;;6.50;99.90;;;;;;5315068;26;20306;-68
2024/04/25 05:50:59;;;;;;;8.50;2.28;;;6.60;99.90;;;;;;5308803;26;20290;-69
2024/04/25 05:53:26;;;;;;;10.75;2.08;;;6.70;99.90;;;;;;5311901;26;20464;-68
2024/04/25 05:55:51;;;;;;;12.27;2.60;;;6.70;99.90;;;;;;5278250;26;20278;-69
2024/04/25 05:58:17;;;;;;;9.95;2.25;;;6.80;99.90;;;;;;5309009;26;20235;-68
2024/04/25 06:00:43;;;;;;;10.43;2.53;;;6.80;99.90;;;;;;5307463;26;20327;-67
2024/04/25 06:03:08;;;;;;;6.05;1.95;;;6.90;99.90;;;;;;5314769;26;20280;-69
2024/04/25 06:05:34;;;;;;;14.00;4.13;;;6.90;99.90;;;;;;5319728;26;20277;-71
2024/04/25 06:08:05;;;;;;;5.93;2.42;;;7.00;99.90;;;;;;5312836;26;20258;-67
2024/04/25 06:10:31;;;;;;;11.02;2.05;;;7.00;99.90;;;;;;5299658;26;20328;-70
2024/04/25 06:12:57;;;;;;;7.68;2.10;;;7.10;99.90;;;;;;5312903;26;20745;-70
2024/04/25 06:15:23;;;;;;;12.27;2.22;;;7.10;99.90;;;;;;5311117;26;20849;-67
2024/04/25 06:17:48;;;;;;;11.20;2.05;;;7.20;99.90;;;;;;5311644;26;20231;-70
2024/04/25 06:20:16;;;;;;;13.13;2.13;;;7.20;99.90;;;;;;5309393;26;20380;-69
2024/04/25 06:22:42;;;;;;;7.20;1.95;;;7.30;99.90;;;;;;5312424;26;20226;-69
2024/04/25 06:25:08;;;;;;;14.30;2.85;;;7.40;99.90;;;;;;5310068;26;20752;-69
2024/04/25 06:27:34;;;;;;;11.60;2.33;;;7.40;99.90;;;;;;5313599;26;21136;-68
2024/04/25 06:30:00;;;;;;;14.80;2.42;;;7.50;99.90;;;;;;5309494;26;20239;-68
2024/04/25 06:32:26;;;;;;;16.50;2.70;;;7.50;99.90;;;;;;5280143;26;20246;-68
2024/04/25 06:34:52;;;;;;;9.65;2.45;;;7.60;99.90;;;;;;5312341;26;20632;-69
2024/04/25 06:37:19;;;;;;;11.02;2.53;;;7.70;99.90;;;;;;5312246;26;21637;-74
2024/04/25 06:39:49;;;;;;;12.82;3.22;;;7.80;99.90;;;;;;5310372;26;20244;-67
2024/04/25 06:42:15;;;;;;;8.10;2.35;;;7.90;99.90;;;;;;5306417;26;20239;-67
2024/04/25 06:44:41;;;;;;;12.32;3.90;;;7.90;99.90;;;;;;5278610;26;20281;-66
2024/04/25 06:47:08;;;;;;;11.07;2.75;;;8.00;99.90;;;;;;5307633;26;20248;-67
2024/04/25 06:49:35;;;;;;;11.68;2.17;;;8.10;99.90;;;;;;5310239;26;20247;-69
2024/04/25 06:52:01;;;;;;;14.02;5.05;;;8.10;99.90;;;;;;5310873;26;20239;-66
2024/04/25 06:54:27;;;;;;;8.38;3.03;;;8.20;99.90;;;;;;5310260;26;20235;-69
2024/04/25 06:56:53;;;;;;;8.77;2.58;;;8.20;99.90;;;;;;5282113;26;20272;-68
2024/04/25 06:59:19;;;;;;;11.90;3.28;;;8.30;99.90;;;;;;5308795;26;20227;-67
2024/04/25 07:01:49;;;;;;;8.60;2.33;;;8.40;99.90;;;;;;5313941;26;20294;-68
2024/04/25 07:04:14;;;;;;;12.75;2.47;;;8.50;99.90;;;;;;5306521;26;20236;-68
2024/04/25 07:06:40;;;;;;;9.55;2.15;;;8.50;99.90;;;;;;5309774;26;20721;-67
2024/04/25 07:09:07;;;;;;;8.50;1.85;;;8.50;99.90;;;;;;5309365;26;20612;-67
2024/04/25 07:11:34;;;;;;;8.15;1.95;;;8.60;99.90;;;;;;5307663;26;20306;-67
2024/04/25 07:14:00;;;;;;;10.55;2.08;;;8.60;99.90;;;;;;5314293;26;20760;-68
2024/04/25 07:16:27;;;;;;;12.18;2.63;;;8.70;99.90;;;;;;5310390;26;21412;-67
2024/04/25 07:18:53;;;;;;;8.30;2.05;;;8.70;99.90;;;;;;5309264;26;20274;-68
2024/04/25 07:21:20;;;;;;;15.18;2.60;;;8.80;99.90;;;;;;5281661;26;20741;-69
2024/04/25 07:23:45;;;;;;;14.57;3.88;;;8.80;99.90;;;;;;5310856;26;20310;-69
2024/04/25 07:26:11;;;;;;;11.30;2.35;;;8.80;99.90;;;;;;5311032;26;20974;-69
2024/04/25 07:28:37;;;;;;;10.50;2.88;;;8.90;99.90;;;;;;5282044;26;20238;-67
2024/04/25 07:31:03;;;;;;;13.65;2.20;;;9.00;99.90;;;;;;5309284;26;20251;-69
2024/04/25 07:33:28;;;;;;;15.18;2.80;;;9.10;99.90;;;;;;5309226;26;20346;-67
2024/04/25 07:35:54;;;;;;;7.03;2.10;;;9.20;99.90;;;;;;5275113;26;20315;-68
2024/04/25 07:38:20;;;;;;;8.07;2.10;;;9.40;99.90;;;;;;5307066;26;20276;-68
2024/04/25 07:40:45;;;;;;;9.75;2.38;;;9.40;99.90;;;;;;5307583;26;20722;-68
2024/04/25 07:43:11;;;;;;;10.75;2.00;;;9.50;99.90;;;;;;5311386;26;20306;-69
2024/04/25 07:45:37;;;;;;;9.25;2.30;;;9.50;99.90;;;;;;5312572;26;20944;-69
2024/04/25 07:48:03;;;;;;;10.65;2.17;;;9.60;99.90;;;;;;5309029;26;20281;-69
2024/04/25 07:50:28;;;;;;;9.25;2.08;;;9.70;99.90;;;;;;5278876;26;20303;-70
2024/04/25 07:52:54;;;;;;;9.05;2.45;;;9.70;99.90;;;;;;5311955;26;20234;-69
2024/04/25 07:55:20;;;;;;;11.07;2.38;;;9.70;99.90;;;;;;5314455;26;20632;-68
2024/04/25 07:57:45;;;;;;;9.95;2.30;;;9.80;99.90;;;;;;5308790;26;20297;-69
2024/04/25 08:00:11;;;;;;;7.63;2.35;;;9.90;99.90;;;;;;5277288;26;20717;-68
2024/04/25 08:02:37;;;;;;;7.35;2.13;;;10.10;99.90;;;;;;5309726;26;20231;-68
2024/04/25 08:05:07;;;;;;;9.60;2.33;;;10.20;99.90;;;;;;5312738;26;21235;-68
2024/04/25 08:07:35;;;;;;;7.88;2.40;;;10.10;99.90;;;;;;5284195;26;20239;-67
2024/04/25 08:10:01;;;;;;;10.18;2.40;;;10.00;99.90;;;;;;5286257;26;20246;-70
2024/04/25 08:12:27;;;;;;;15.02;2.80;;;10.00;99.90;;;;;;5309275;26;20232;-67
2024/04/25 08:14:52;;;;;;;12.60;2.20;;;10.00;99.90;;;;;;5309552;26;20234;-70
2024/04/25 08:17:18;;;;;;;7.18;2.22;;;10.00;99.90;;;;;;5312261;26;20246;-69
2024/04/25 08:19:44;;;;;;;9.10;2.00;;;10.10;99.90;;;;;;5314850;26;20350;-68
2024/04/25 08:22:09;;;;;;;8.25;2.15;;;10.10;99.90;;;;;;5307092;26;20236;-69
2024/04/25 08:24:35;;;;;;;10.40;1.92;;;10.10;99.90;;;;;;5281065;26;20732;-68
2024/04/25 08:27:01;;;;;;;9.68;1.88;;;10.20;99.90;;;;;;5316304;26;20231;-69
2024/04/25 08:29:27;;;;;;;4.93;1.65;;;10.20;99.90;;;;;;5281864;26;20236;-68
2024/04/25 08:31:53;;;;;;;6.82;1.90;;;10.20;99.90;;;;;;5309084;26;20322;-68
2024/04/25 08:34:18;;;;;;;8.50;1.67;;;10.20;99.90;;;;;;5307841;26;20235;-68
2024/04/25 08:36:44;;;;;;;9.07;2.65;;;10.30;99.90;;;;;;5312136;26;20350;-69
2024/04/25 08:39:10;;;;;;;6.50;1.92;;;10.30;99.90;;;;;;5314736;26;20227;-69
2024/04/25 08:41:36;;;;;;;4.18;2.03;;;10.40;99.90;;;;;;5308151;26;20252;-69
2024/04/25 08:44:02;;;;;;;7.45;2.28;;;10.50;99.90;;;;;;5280034;26;20235;-68
2024/04/25 08:46:30;;;;;;;7.03;1.90;;;10.50;99.90;;;;;;5285182;26;22195;-67
2024/04/25 08:49:00;;;;;;;6.82;4.13;;;10.50;99.90;;;;;;5282089;26;20243;-68
2024/04/25 08:51:28;;;;;;;8.32;2.10;;;10.60;99.90;;;;;;5307523;26;20548;-68
2024/04/25 08:53:58;;;;;;;10.50;1.70;;;10.70;99.90;;;;;;5311274;26;20758;-68
2024/04/25 08:56:28;;;;;;;6.72;2.00;;;10.70;99.90;;;;;;5312021;26;20235;-69
2024/04/25 08:58:55;;;;;;;9.05;2.05;;;10.80;99.90;;;;;;5310877;26;20694;-68
2024/04/25 09:01:22;;;;;;;11.07;2.00;;;10.90;99.90;;;;;;5315539;26;20548;-68
2024/04/25 09:03:52;;;;;;;11.95;2.65;;;11.10;99.90;;;;;;5284001;26;20236;-70
2024/04/25 09:06:18;;;;;;;7.85;1.88;;;11.20;99.90;;;;;;5308543;26;20637;-69
2024/04/25 09:08:44;;;;;;;8.90;2.10;;;11.30;99.90;;;;;;5307504;26;20290;-69
2024/04/25 09:11:23;;;;;;;7.55;2.08;;;11.40;99.90;;;;;;5282299;26;20290;-70
2024/04/25 09:13:53;;;;;;;5.78;1.80;;;11.50;99.90;;;;;;5305810;26;20293;-69
2024/04/25 09:16:19;;;;;;;11.55;1.80;;;11.50;99.90;;;;;;5340895;26;20234;-67
2024/04/25 09:18:46;;;;;;;12.68;2.38;;;11.60;99.90;;;;;;5310134;26;20232;-67
2024/04/25 09:21:12;;;;;;;10.45;2.10;;;11.60;99.90;;;;;;5276667;26;20764;-69
2024/04/25 09:23:41;;;;;;;7.47;1.90;;;11.60;99.90;;;;;;5310824;26;20248;-69
2024/04/25 09:26:09;;;;;;;9.43;2.00;;;11.60;99.90;;;;;;5311385;26;20284;-68
2024/04/25 09:28:35;;;;;;;6.15;1.50;;;11.70;99.90;;;;;;5312023;26;20286;-67
2024/04/25 09:31:02;;;;;;;7.85;2.30;;;11.70;99.90;;;;;;5282954;26;20240;-69
2024/04/25 09:33:28;;;;;;;10.68;2.13;;;11.70;99.90;;;;;;5313144;26;20335;-69
2024/04/25 09:35:54;;;;;;;11.77;2.63;;;11.80;99.90;;;;;;5309705;26;20240;-68
2024/04/25 09:38:20;;;;;;;14.18;3.88;;;11.80;99.90;;;;;;5270251;26;20371;-67
2024/04/25 09:40:46;;;;;;;8.13;1.90;;;11.90;99.90;;;;;;5312159;26;20278;-68
2024/04/25 09:43:13;;;;;;;7.32;2.00;;;12.10;99.90;;;;;;5274319;26;20240;-69
2024/04/25 09:45:40;;;;;;;7.45;1.98;;;12.30;99.90;;;;;;5308013;26;20231;-67
2024/04/25 09:48:36;;;;;;;9.93;2.25;;;12.40;99.90;;;;;;5278066;26;20258;-70
2024/04/25 09:51:20;;;;;;;11.25;2.25;;;12.40;99.90;;;;;;5275575;26;20711;-69
2024/04/25 09:53:59;;;;;;;9.25;2.03;;;12.40;99.90;;;;;;5311089;26;20547;-70
2024/04/25 09:56:28;;;;;;;9.30;1.77;;;12.30;99.90;;;;;;5310875;26;20270;-69
2024/04/25 09:59:01;;;;;;;6.93;2.03;;;12.20;99.90;;;;;;5308830;26;20289;-69
2024/04/25 10:01:28;;;;;;;6.57;2.15;;;12.10;99.90;;;;;;5311781;26;20288;-69
2024/04/25 10:03:58;;;;;;;7.22;2.03;;;11.90;99.90;;;;;;5306186;26;20235;-69
2024/04/25 10:06:24;;;;;;;4.53;1.77;;;11.80;99.90;;;;;;5315177;26;20231;-70
2024/04/25 10:08:51;;;;;;;5.93;1.90;;;11.70;99.90;;;;;;5303837;26;20251;-68
2024/04/25 10:11:17;;;;;;;4.75;1.88;;;11.60;99.90;;;;;;5281217;26;20706;-68
2024/04/25 10:13:51;;;;;;;8.10;1.90;;;11.60;99.90;;;;;;5315059;26;20274;-68
2024/04/25 10:16:20;;;;;;;6.30;1.77;;;11.50;99.90;;;;;;5309642;26;20292;-68
2024/04/25 10:18:51;;;;;;;7.05;1.70;;;11.40;99.90;;;;;;5308863;26;20385;-69
2024/04/25 10:21:17;;;;;;;3.55;1.45;;;11.40;99.90;;;;;;5312653;26;20247;-69
2024/04/25 10:23:42;;;;;;;4.40;1.63;;;11.30;99.90;;;;;;5314721;26;20722;-67
2024/04/25 10:26:21;;;;;;;4.85;1.90;;;11.30;99.90;;;;;;5305742;26;20299;-70
2024/04/25 10:29:05;;;;;;;4.53;1.55;;;11.30;99.90;;;;;;5304366;26;20235;-68
2024/04/25 10:31:35;;;;;;;3.45;1.40;;;11.20;99.90;;;;;;5310085;26;20238;-67
2024/04/25 10:34:01;;;;;;;4.00;1.40;;;11.20;99.90;;;;;;5306168;26;20261;-70
2024/04/25 10:36:30;;;;;;;3.47;1.48;;;11.30;99.90;;;;;;5312374;26;20769;-68
2024/04/25 10:38:56;;;;;;;5.70;1.60;;;11.60;99.90;;;;;;5308476;26;20240;-68
2024/04/25 10:41:36;;;;;;;4.60;1.33;;;11.80;99.90;;;;;;5308921;26;20236;-68
2024/04/25 10:44:03;;;;;;;4.30;1.65;;;12.00;99.90;;;;;;5307362;26;20232;-69
2024/04/25 10:46:29;;;;;;;4.22;1.17;;;12.20;99.90;;;;;;5275759;26;20236;-68
2024/04/25 10:48:55;;;;;;;3.78;1.50;;;12.30;99.90;;;;;;5305928;26;21122;-68
2024/04/25 10:51:21;;;;;;;4.72;1.52;;;12.40;99.90;;;;;;5312537;26;20289;-68
2024/04/25 10:53:48;;;;;;;3.35;1.20;;;12.50;99.90;;;;;;5309160;26;20684;-67
2024/04/25 10:56:16;;;;;;;2.65;1.58;;;12.60;99.90;;;;;;5311805;26;20232;-68
2024/04/25 10:58:52;;;;;;;3.90;1.30;;;12.60;99.90;;;;;;5308707;26;20232;-68
2024/04/25 11:01:24;;;;;;;2.90;1.30;;;12.70;99.90;;;;;;5256705;26;20297;-70
2024/04/25 11:03:57;;;;;;;3.88;1.20;;;12.80;99.90;;;;;;5278549;26;21070;-67
2024/04/25 11:06:24;;;;;;;2.78;1.30;;;12.80;99.90;;;;;;5307492;26;20289;-68
2024/04/25 11:08:51;;;;;;;7.07;1.60;;;12.80;99.90;;;;;;5305295;26;20293;-68
2024/04/25 11:11:17;;;;;;;9.57;1.58;;;12.90;99.90;;;;;;5313281;26;20286;-68
2024/04/25 11:13:43;;;;;;;3.42;1.10;;;13.00;99.90;;;;;;5311023;26;20717;-67
2024/04/25 11:16:09;;;;;;;2.67;1.02;;;13.00;99.90;;;;;;5307866;26;20238;-68
2024/04/25 11:18:35;;;;;;;3.97;1.30;;;13.00;99.90;;;;;;5283100;26;21157;-67
2024/04/25 11:21:02;;;;;;;2.80;1.20;;;13.10;99.90;;;;;;5306576;26;20385;-67
2024/04/25 11:23:30;;;;;;;4.00;1.35;;;13.20;99.80;;;;;;5311271;26;20243;-67
2024/04/25 11:25:59;;;;;;;4.40;1.30;;;13.30;99.20;;;;;;5310920;26;20247;-67
2024/04/25 11:28:25;;;;;;;2.20;1.30;;;13.40;99.00;;;;;;5304274;26;20273;-68
2024/04/25 11:30:51;;;;;;;5.95;1.30;;;13.50;98.80;;;;;;5300668;26;20243;-68
2024/04/25 11:33:23;;;;;;;6.45;1.40;;;13.60;98.70;;;;;;5307427;26;20239;-68
2024/04/25 11:35:49;;;;;;;4.32;1.70;;;13.70;98.20;;;;;;5305967;26;20236;-68
2024/04/25 11:38:18;;;;;;;3.65;1.50;;;13.70;98.10;;;;;;5307120;26;21291;-68
2024/04/25 11:40:45;;;;;;;4.05;1.40;;;13.80;97.80;;;;;;5310104;26;20346;-68
2024/04/25 11:43:13;;;;;;;4.45;1.48;;;13.80;97.80;;;;;;5281207;26;20315;-68
2024/04/25 11:45:43;;;;;;;2.75;1.30;;;13.80;97.70;;;;;;5310031;26;20289;-69
2024/04/25 11:48:16;;;;;;;4.38;1.70;;;13.70;97.70;;;;;;5309696;26;20281;-68
2024/04/25 11:50:42;;;;;;;6.80;1.60;;;13.60;98.00;;;;;;5310964;26;20227;-67
2024/04/25 11:53:09;;;;;;;6.60;1.58;;;13.50;97.80;;;;;;5307608;26;20518;-68
2024/04/25 11:55:36;;;;;;;3.38;1.42;;;13.30;98.30;;;;;;5306611;26;20235;-68
2024/04/25 11:58:02;;;;;;;7.03;1.70;;;13.10;98.70;;;;;;5308520;26;20273;-68
2024/04/25 12:00:28;;;;;;;5.85;2.00;;;12.80;99.70;;;;;;5281464;26;20298;-67
2024/04/25 12:02:53;;;;;;;5.05;1.70;;;12.60;99.90;;;;;;5307753;26;20239;-69
2024/04/25 12:05:21;;;;;;;5.78;1.88;;;12.30;99.90;;;;;;5277303;26;20240;-67
2024/04/25 12:07:51;;;;;;;4.72;1.85;;;12.00;99.90;;;;;;5275053;26;20243;-66
2024/04/25 12:10:17;;;;;;;5.47;2.00;;;11.60;99.90;;;;;;5307627;26;20236;-67
2024/04/25 12:12:43;;;;;;;5.32;1.90;;;11.30;99.90;;;;;;5250094;26;20605;-67
2024/04/25 12:15:09;;;;;;;6.47;2.10;;;11.10;99.90;;;;;;5305897;26;20242;-67
2024/04/25 12:17:35;;;;;;;7.15;2.00;;;10.90;99.90;;;;;;5280221;26;20234;-68
2024/04/25 12:20:02;;;;;;;5.38;2.10;;;10.70;99.90;;;;;;5306631;26;20289;-69
2024/04/25 12:22:28;;;;;;;7.45;2.50;;;10.60;99.90;;;;;;5280432;26;20240;-69
2024/04/25 12:24:54;;;;;;;5.75;2.20;;;10.50;99.90;;;;;;5309685;26;20231;-69
2024/04/25 12:27:19;;;;;;;5.57;2.22;;;10.50;99.90;;;;;;5313227;26;20269;-68
2024/04/25 12:29:45;;;;;;;8.90;2.30;;;10.60;99.90;;;;;;5304846;26;20236;-68
2024/04/25 12:32:11;;;;;;;10.48;6.53;;;10.70;99.90;;;;;;5306684;26;20275;-68
2024/04/25 12:34:37;;;;;;;5.30;2.50;;;10.80;99.90;;;;;;5304701;26;20242;-69
2024/04/25 12:37:03;;;;;;;6.50;2.50;;;11.00;99.90;;;;;;5311475;26;20243;-67
2024/04/25 12:39:31;;;;;;;4.93;1.88;;;11.20;99.90;;;;;;5309836;26;20824;-68
2024/04/25 12:41:57;;;;;;;4.57;2.10;;;11.40;99.90;;;;;;5314880;26;20299;-70
2024/04/25 12:44:23;;;;;;;4.95;2.50;;;11.50;99.90;;;;;;5313572;26;20627;-67
2024/04/25 12:46:48;;;;;;;7.28;2.50;;;11.70;99.90;;;;;;5313992;26;20274;-69
2024/04/25 12:49:32;;;;;;;5.65;2.50;;;11.80;99.90;;;;;;5284359;26;20286;-68
2024/04/25 12:51:58;;;;;;;6.45;2.33;;;12.00;99.90;;;;;;5287497;26;20749;-70
2024/04/25 12:54:24;;;;;;;7.80;2.92;;;12.10;99.90;;;;;;5311564;26;20286;-68